Time;durP1;ratioP1;P1;durP2;ratioP2;P2;SDS_P1;SDS_P2;PMS_P1;PMS_P2;Temp;Humidity;BMP_temperature;BMP_pressure;BME280_temperature;BME280_humidity;BME280_pressure;Samples;Min_cycle;Max_cycle;Signal;HPM_P1;HPM_P2
2022/09/03 00:01:10;;;;;;;;;;;;;;;17.32;63.99;96095.16;5040371;28;19950;-77
2022/09/03 00:03:39;;;;;;;;;;;;;;;17.31;64.19;96093.56;5042449;28;19966;-76
2022/09/03 00:06:07;;;;;;;;;;;;;;;17.29;64.47;96091.19;5050105;28;19963;-77
2022/09/03 00:08:34;;;;;;;;;;;;;;;17.29;64.35;96090.41;5044721;28;20442;-77
2022/09/03 00:11:04;;;;;;;;;;;;;;;17.27;64.38;96095.94;5042549;28;19950;-77
2022/09/03 00:13:56;;;;;;;;;;;;;;;17.27;64.60;96092.53;5041124;28;19956;-77
2022/09/03 00:16:25;;;;;;;;;;;;;;;17.24;64.80;96096.50;5036634;28;20437;-77
2022/09/03 00:18:54;;;;;;;;;;;;;;;17.22;64.96;96091.47;5043237;28;19958;-77
2022/09/03 00:21:39;;;;;;;;;;;;;;;17.21;64.97;96086.44;5046387;28;19975;-77
2022/09/03 00:24:07;;;;;;;;;;;;;;;17.21;65.46;96089.06;5028046;28;20329;-77
2022/09/03 00:26:34;;;;;;;;;;;;;;;17.21;65.28;96089.06;5044582;28;19996;-77
2022/09/03 00:29:05;;;;;;;;;;;;;;;17.19;65.41;96086.69;5043961;28;20331;-77
2022/09/03 00:31:37;;;;;;;;;;;;;;;17.18;65.07;96090.41;5047816;28;19967;-77
2022/09/03 00:34:08;;;;;;;;;;;;;;;17.17;65.67;96096.75;5043913;28;20429;-77
2022/09/03 00:36:41;;;;;;;;;;;;;;;17.17;65.90;96101.28;5041003;28;19953;-77
2022/09/03 00:39:11;;;;;;;;;;;;;;;17.16;66.29;96095.19;5044252;28;19969;-77
2022/09/03 00:41:56;;;;;;;;;;;;;;;17.14;66.32;96102.59;5040250;28;19969;-77
2022/09/03 00:44:25;;;;;;;;;;;;;;;17.13;66.35;96103.66;5040990;28;19962;-77
2022/09/03 00:46:51;;;;;;;;;;;;;;;17.11;66.31;96097.81;5044442;28;19951;-77
2022/09/03 00:49:17;;;;;;;;;;;;;;;17.12;66.38;96098.66;5042200;28;19959;-77
2022/09/03 00:51:45;;;;;;;;;;;;;;;17.11;66.48;96099.69;5047413;28;19967;-77
2022/09/03 00:54:34;;;;;;;;;;;;;;;17.08;66.75;96098.38;5045207;28;19977;-77
2022/09/03 00:57:00;;;;;;;;;;;;;;;17.04;66.25;96090.16;5037842;28;20336;-77
2022/09/03 00:59:34;;;;;;;;;;;;;;;17.02;65.82;96091.50;5046246;28;19958;-77
2022/09/03 01:02:00;;;;;;;;;;;;;;;17.00;66.39;96094.41;5040291;28;19971;-77
2022/09/03 01:04:50;;;;;;;;;;;;;;;16.98;66.15;96090.44;5044321;28;20312;-77
2022/09/03 01:07:36;;;;;;;;;;;;;;;16.96;66.39;96090.69;5040331;28;19960;-77
2022/09/03 01:10:11;;;;;;;;;;;;;;;16.95;66.97;96089.13;5045691;28;19961;-77
2022/09/03 01:12:40;;;;;;;;;;;;;;;16.94;66.49;96092.81;5046457;28;19959;-77
2022/09/03 01:15:28;;;;;;;;;;;;;;;16.94;66.72;96097.34;5047593;28;19959;-77
2022/09/03 01:17:58;;;;;;;;;;;;;;;16.90;66.21;96089.13;5042124;28;19958;-77
2022/09/03 01:20:24;;;;;;;;;;;;;;;16.90;66.78;96096.28;5038962;28;19959;-77
2022/09/03 01:22:50;;;;;;;;;;;;;;;16.88;66.97;96091.25;5045315;28;20023;-77
2022/09/03 01:25:26;;;;;;;;;;;;;;;16.87;66.99;96086.22;5046034;28;19967;-77
2022/09/03 01:28:12;;;;;;;;;;;;;;;16.84;67.09;96090.22;5041585;28;19973;-77
2022/09/03 01:30:46;;;;;;;;;;;;;;;16.83;67.38;96093.91;5042965;28;19962;-77
2022/09/03 01:33:21;;;;;;;;;;;;;;;16.82;66.86;96090.47;5040415;28;19968;-77
2022/09/03 01:35:50;;;;;;;;;;;;;;;16.82;66.91;96092.31;5041879;28;19961;-77
2022/09/03 01:38:16;;;;;;;;;;;;;;;16.80;67.39;96100.53;5044345;28;20397;-77
2022/09/03 01:44:09;;;;;;;;;;;;;;;16.74;67.76;96101.56;5023851;28;19967;-77
2022/09/03 01:46:38;;;;;;;;;;;;;;;16.73;68.08;96099.16;5025986;28;20397;-77
2022/09/03 01:49:22;;;;;;;;;;;;;;;16.70;68.50;96107.66;5043373;28;19989;-77
2022/09/03 01:52:08;;;;;;;;;;;;;;;16.68;67.92;96104.47;5033936;28;19961;-77
2022/09/03 01:54:43;;;;;;;;;;;;;;;16.66;67.78;96104.72;5042445;28;20316;-76
2022/09/03 01:57:38;;;;;;;;;;;;;;;16.66;68.77;96114.53;5025617;28;19964;-77
2022/09/03 02:00:09;;;;;;;;;;;;;;;16.63;68.36;96107.91;5029167;28;19986;-77
2022/09/03 02:02:35;;;;;;;;;;;;;;;16.60;68.06;96100.50;5042106;28;20352;-77
2022/09/03 02:05:08;;;;;;;;;;;;;;;16.59;68.26;96101.56;5038227;28;19993;-77
2022/09/03 02:07:39;;;;;;;;;;;;;;;16.58;68.50;96107.91;5044941;28;20425;-77
2022/09/03 02:10:07;;;;;;;;;;;;;;;16.55;68.48;96114.53;5048264;28;20437;-76
2022/09/03 02:12:34;;;;;;;;;;;;;;;16.52;68.09;96104.44;5046454;28;19963;-77
2022/09/03 02:15:02;;;;;;;;;;;;;;;16.50;68.37;96103.13;5045745;28;19954;-77
2022/09/03 02:17:32;;;;;;;;;;;;;;;16.49;68.35;96093.63;5046714;28;19952;-77
2022/09/03 02:20:02;;;;;;;;;;;;;;;16.46;68.95;96100.22;5044903;28;19977;-77
2022/09/03 02:22:28;;;;;;;;;;;;;;;16.46;69.00;96107.38;5048587;28;20543;-77
2022/09/03 02:24:54;;;;;;;;;;;;;;;16.44;69.31;96102.31;5050703;28;20005;-77
2022/09/03 02:27:20;;;;;;;;;;;;;;;16.41;69.11;96098.34;5049853;28;20495;-77
2022/09/03 02:29:46;;;;;;;;;;;;;;;16.40;69.47;96099.44;5041854;28;19962;-77
2022/09/03 02:32:13;;;;;;;;;;;;;;;16.39;69.47;96089.88;5043834;28;20348;-77
2022/09/03 02:34:40;;;;;;;;;;;;;;;16.38;69.60;96085.66;5045667;28;19975;-77
2022/09/03 02:37:13;;;;;;;;;;;;;;;16.36;70.03;96097.59;5045701;28;19966;-77
2022/09/03 02:39:40;;;;;;;;;;;;;;;16.33;69.70;96093.59;5052259;28;19962;-77
2022/09/03 02:42:06;;;;;;;;;;;;;;;16.32;69.90;96105.25;5046113;28;20437;-77
2022/09/03 02:44:35;;;;;;;;;;;;;;;16.30;70.32;96111.84;5044521;28;19956;-77
2022/09/03 02:47:02;;;;;;;;;;;;;;;16.29;70.81;96113.69;5044684;28;19955;-77
2022/09/03 02:49:31;;;;;;;;;;;;;;;16.28;70.93;96113.97;5050761;28;19954;-76
2022/09/03 02:52:05;;;;;;;;;;;;;;;16.27;70.82;96110.50;5048272;28;19968;-77
2022/09/03 02:54:34;;;;;;;;;;;;;;;16.25;70.73;96104.69;5048171;28;20445;-77
2022/09/03 02:57:01;;;;;;;;;;;;;;;16.27;71.16;96113.16;5045256;28;19974;-77
2022/09/03 02:59:27;;;;;;;;;;;;;;;16.26;71.28;96111.59;5041731;28;20476;-77
2022/09/03 03:01:54;;;;;;;;;;;;;;;16.25;72.01;96104.69;5044714;28;19964;-77
2022/09/03 03:04:20;;;;;;;;;;;;;;;16.23;71.91;96098.84;5052102;28;19967;-77
2022/09/03 03:06:49;;;;;;;;;;;;;;;16.22;71.84;96103.38;5048643;28;19961;-76
2022/09/03 03:09:16;;;;;;;;;;;;;;;16.21;72.19;96103.63;5044028;28;19970;-76
2022/09/03 03:11:41;;;;;;;;;;;;;;;16.19;72.12;96103.91;5042311;28;20012;-77
2022/09/03 03:14:07;;;;;;;;;;;;;;;16.19;72.53;96103.09;5051909;28;20422;-77
2022/09/03 03:16:33;;;;;;;;;;;;;;;16.17;72.83;96103.38;5043479;28;19983;-76
2022/09/03 03:18:59;;;;;;;;;;;;;;;16.16;72.97;96100.97;5044254;28;20415;-77
2022/09/03 03:21:25;;;;;;;;;;;;;;;16.15;73.08;96105.47;5045943;28;19953;-77
2022/09/03 03:23:51;;;;;;;;;;;;;;;16.16;73.47;96120.28;5046981;28;19979;-77
2022/09/03 03:26:18;;;;;;;;;;;;;;;16.13;73.69;96102.31;5044725;28;19986;-77
2022/09/03 03:28:45;;;;;;;;;;;;;;;16.15;73.36;96121.34;5044270;28;20351;-77
2022/09/03 03:31:12;;;;;;;;;;;;;;;16.15;74.18;96107.34;5045108;28;19970;-77
2022/09/03 03:33:39;;;;;;;;;;;;;;;16.14;74.44;96105.72;5044066;28;19991;-77
2022/09/03 03:36:05;;;;;;;;;;;;;;;16.14;74.77;96103.09;5040454;28;19960;-77
2022/09/03 03:38:32;;;;;;;;;;;;;;;16.12;74.43;96102.56;5047297;28;20321;-76
2022/09/03 03:40:58;;;;;;;;;;;;;;;16.11;74.35;96112.34;5048837;28;19966;-77
2022/09/03 03:43:23;;;;;;;;;;;;;;;16.11;75.43;96119.50;5043633;28;19976;-77
2022/09/03 03:45:56;;;;;;;;;;;;;;;16.10;74.94;96117.88;5046383;28;19963;-76
2022/09/03 03:48:22;;;;;;;;;;;;;;;16.11;74.54;96116.84;5040605;28;19959;-77
2022/09/03 03:50:48;;;;;;;;;;;;;;;16.11;75.76;96115.00;5051723;28;19963;-76
2022/09/03 03:53:14;;;;;;;;;;;;;;;16.11;75.38;96116.84;5042446;28;20019;-77
2022/09/03 03:55:40;;;;;;;;;;;;;;;16.08;75.21;96115.50;5042577;28;20016;-77
2022/09/03 03:58:06;;;;;;;;;;;;;;;16.07;75.31;96118.41;5051285;28;19970;-77
2022/09/03 04:00:36;;;;;;;;;;;;;;;16.09;75.45;96126.88;5039720;28;19967;-77
2022/09/03 04:03:03;;;;;;;;;;;;;;;16.09;75.84;96132.97;5046445;28;19983;-77
2022/09/03 04:05:29;;;;;;;;;;;;;;;16.07;75.87;96124.50;5046804;28;20341;-77
2022/09/03 04:07:55;;;;;;;;;;;;;;;16.07;75.83;96123.72;5039479;28;19958;-77
2022/09/03 04:10:20;;;;;;;;;;;;;;;16.02;76.97;96117.34;5045388;28;20049;-77
2022/09/03 04:12:46;;;;;;;;;;;;;;;15.99;75.97;96117.06;5047191;28;20409;-77
2022/09/03 04:15:12;;;;;;;;;;;;;;;15.96;75.52;96120.25;5041632;28;20385;-77
2022/09/03 04:17:38;;;;;;;;;;;;;;;15.93;76.91;96118.09;5041160;28;20015;-77
2022/09/03 04:20:04;;;;;;;;;;;;;;;15.89;76.82;96114.38;5047219;28;19966;-77
2022/09/03 04:22:30;;;;;;;;;;;;;;;15.85;77.03;96113.31;5046238;28;19973;-77
2022/09/03 04:24:56;;;;;;;;;;;;;;;15.80;77.29;96116.75;5048729;28;20020;-77
2022/09/03 04:27:22;;;;;;;;;;;;;;;15.77;77.14;96112.78;5040287;28;20066;-76
2022/09/03 04:29:48;;;;;;;;;;;;;;;15.78;77.17;96111.69;5039984;28;20365;-77
2022/09/03 04:34:58;;;;;;;;;;;;;;;15.83;77.82;96110.91;5050072;28;20340;-77
2022/09/03 04:37:26;;;;;;;;;;;;;;;15.85;77.60;96114.09;5040144;28;20485;-77
2022/09/03 04:39:53;;;;;;;;;;;;;;;15.86;77.32;96112.28;5040562;28;19973;-76
2022/09/03 04:42:18;;;;;;;;;;;;;;;15.86;77.52;96105.13;5049721;28;20366;-77
2022/09/03 04:44:44;;;;;;;;;;;;;;;15.88;77.36;96110.97;5047177;28;20046;-76
2022/09/03 04:47:10;;;;;;;;;;;;;;;15.88;77.31;96108.31;5039288;28;19962;-77
2022/09/03 04:49:36;;;;;;;;;;;;;;;15.88;78.25;96115.47;5044438;28;20011;-77
2022/09/03 04:52:02;;;;;;;;;;;;;;;15.88;77.73;96112.81;5048498;28;19967;-77
2022/09/03 04:54:28;;;;;;;;;;;;;;;15.89;77.99;96115.19;5041929;28;20058;-77
2022/09/03 04:56:54;;;;;;;;;;;;;;;15.89;77.73;96114.38;5044652;28;20044;-77
2022/09/03 04:59:20;;;;;;;;;;;;;;;15.90;77.79;96114.13;5045669;28;20418;-76
2022/09/03 05:01:46;;;;;;;;;;;;;;;15.92;78.03;96119.19;5045780;28;19968;-76
2022/09/03 05:04:12;;;;;;;;;;;;;;;15.94;78.00;96125.78;5043735;28;20442;-77
2022/09/03 05:06:38;;;;;;;;;;;;;;;15.95;78.30;96122.06;5037118;28;19991;-77
2022/09/03 05:09:04;;;;;;;;;;;;;;;15.96;78.17;96122.91;5045189;28;19964;-76
2022/09/03 05:11:30;;;;;;;;;;;;;;;15.97;78.28;96119.19;5045741;28;19961;-77
2022/09/03 05:13:57;;;;;;;;;;;;;;;15.99;78.26;96123.16;5043056;28;19960;-77
2022/09/03 05:16:24;;;;;;;;;;;;;;;16.02;78.44;96129.75;5042135;28;20074;-77
2022/09/03 05:18:51;;;;;;;;;;;;;;;16.04;78.79;96127.66;5043291;28;19949;-77
2022/09/03 05:21:17;;;;;;;;;;;;;;;16.05;78.42;96126.59;5041609;28;19992;-76
2022/09/03 05:23:45;;;;;;;;;;;;;;;16.07;78.94;96132.44;5046454;28;20076;-77
2022/09/03 05:26:12;;;;;;;;;;;;;;;16.07;79.50;96124.50;5042290;28;19984;-76
2022/09/03 05:28:39;;;;;;;;;;;;;;;16.10;79.15;96121.31;5047123;28;19971;-77
2022/09/03 05:31:06;;;;;;;;;;;;;;;16.12;78.82;96121.06;5044976;28;19964;-77
2022/09/03 05:33:33;;;;;;;;;;;;;;;16.15;79.22;96136.44;5039781;28;19964;-77
2022/09/03 05:36:08;;;;;;;;;;;;;;;16.16;79.59;96130.06;5044052;28;19954;-77
2022/09/03 05:38:34;;;;;;;;;;;;;;;16.17;80.10;96129.81;5049305;28;19956;-77
2022/09/03 05:41:01;;;;;;;;;;;;;;;16.20;80.07;96137.22;5040290;28;19965;-77
2022/09/03 05:43:27;;;;;;;;;;;;;;;16.24;79.56;96132.22;5042732;28;20326;-77
2022/09/03 05:46:00;;;;;;;;;;;;;;;16.27;79.77;96131.69;5041325;28;19953;-77
2022/09/03 05:48:27;;;;;;;;;;;;;;;16.27;80.23;96139.63;5044972;28;19966;-77
2022/09/03 05:51:02;;;;;;;;;;;;;;;16.27;79.68;96130.88;5042530;28;20423;-76
2022/09/03 05:53:29;;;;;;;;;;;;;;;16.25;79.57;96139.06;5029425;28;19956;-77
2022/09/03 05:55:56;;;;;;;;;;;;;;;16.26;79.94;96140.69;5047261;28;20399;-77
2022/09/03 05:58:22;;;;;;;;;;;;;;;16.28;80.00;96138.56;5051318;28;19966;-77
2022/09/03 06:00:48;;;;;;;;;;;;;;;16.29;79.87;96134.84;5048967;28;20056;-77
2022/09/03 06:03:14;;;;;;;;;;;;;;;16.29;80.64;96142.78;5042012;28;20023;-76
2022/09/03 06:05:48;;;;;;;;;;;;;;;16.32;82.11;96141.50;5047857;28;19968;-77
2022/09/03 06:08:14;;;;;;;;;;;;;;;16.33;81.17;96141.22;5046191;28;19957;-77
2022/09/03 06:10:39;;;;;;;;;;;;;;;16.34;81.38;96145.47;5047063;28;20034;-77
2022/09/03 06:13:05;;;;;;;;;;;;;;;16.32;82.80;96150.22;5048062;28;19961;-77
2022/09/03 06:15:31;;;;;;;;;;;;;;;16.34;82.02;96148.13;5043970;28;19992;-77
2022/09/03 06:17:57;;;;;;;;;;;;;;;16.34;81.10;96145.47;5046835;28;20465;-76
2022/09/03 06:20:26;;;;;;;;;;;;;;;16.35;81.80;96149.69;5047723;28;20004;-77
2022/09/03 06:22:52;;;;;;;;;;;;;;;16.39;80.87;96142.81;5046858;28;19979;-77
2022/09/03 06:25:18;;;;;;;;;;;;;;;16.42;81.17;96138.84;5043401;28;19961;-77
2022/09/03 06:27:44;;;;;;;;;;;;;;;16.44;80.91;96142.03;5053613;28;19960;-77
2022/09/03 06:30:11;;;;;;;;;;;;;;;16.46;80.82;96139.13;5047548;28;19965;-77
2022/09/03 06:32:43;;;;;;;;;;;;;;;16.46;80.83;96137.25;5039577;28;19962;-77
2022/09/03 06:35:09;;;;;;;;;;;;;;;16.49;81.82;96144.69;5046568;28;20351;-77
2022/09/03 06:37:39;;;;;;;;;;;;;;;16.54;81.73;96138.59;5037715;28;19972;-77
2022/09/03 06:40:07;;;;;;;;;;;;;;;16.58;81.19;96143.09;5066608;28;20360;-77
2022/09/03 06:42:33;;;;;;;;;;;;;;;16.59;81.30;96134.13;5040221;28;19977;-77
2022/09/03 06:44:59;;;;;;;;;;;;;;;16.66;81.14;96133.06;5043329;28;19966;-77
2022/09/03 06:47:25;;;;;;;;;;;;;;;16.72;80.84;96130.16;5053128;28;20056;-77
2022/09/03 06:49:50;;;;;;;;;;;;;;;16.78;80.78;96129.09;5041802;28;20487;-77
2022/09/03 06:52:16;;;;;;;;;;;;;;;16.87;80.50;96136.53;5044244;28;20035;-77
2022/09/03 06:54:42;;;;;;;;;;;;;;;16.94;79.91;96137.84;5046396;28;19994;-77
2022/09/03 06:57:08;;;;;;;;;;;;;;;16.98;81.00;96138.13;5044557;28;19975;-77
2022/09/03 06:59:35;;;;;;;;;;;;;;;16.98;79.94;96133.63;5047617;28;20346;-77
2022/09/03 07:02:02;;;;;;;;;;;;;;;16.97;79.51;96129.38;5048877;28;19960;-77
2022/09/03 07:04:28;;;;;;;;;;;;;;;17.01;80.07;96132.31;5050297;28;19983;-77
2022/09/03 07:06:54;;;;;;;;;;;;;;;17.13;80.61;96132.00;5041918;28;20017;-77
2022/09/03 07:09:20;;;;;;;;;;;;;;;17.25;80.26;96133.31;5045098;28;20048;-77
2022/09/03 07:11:46;;;;;;;;;;;;;;;17.49;78.98;96134.59;5048788;28;19971;-77
2022/09/03 07:14:12;;;;;;;;;;;;;;;17.75;78.05;96133.47;5047349;28;19992;-78
2022/09/03 07:16:38;;;;;;;;;;;;;;;17.86;77.16;96131.59;5041635;28;19971;-77
2022/09/03 07:19:04;;;;;;;;;;;;;;;17.98;76.39;96136.59;5045364;28;20364;-77
2022/09/03 07:21:32;;;;;;;;;;;;;;;18.11;75.86;96129.88;5044580;28;19982;-77
2022/09/03 07:23:59;;;;;;;;;;;;;;;18.34;76.53;96136.41;5050168;28;19985;-77
2022/09/03 07:26:26;;;;;;;;;;;;;;;18.72;74.11;96126.84;5039567;28;20038;-77
2022/09/03 07:28:53;;;;;;;;;;;;;;;18.86;73.87;96121.72;5051076;28;20438;-77
2022/09/03 07:31:24;;;;;;;;;;;;;;;18.93;73.05;96110.75;5051139;28;20353;-77
2022/09/03 07:34:09;;;;;;;;;;;;;;;19.02;73.04;96115.19;5048188;28;19973;-77
2022/09/03 07:36:40;;;;;;;;;;;;;;;19.43;72.82;96117.44;5034763;28;19967;-77
2022/09/03 07:39:06;;;;;;;;;;;;;;;19.77;70.78;96111.25;5042255;28;19961;-77
2022/09/03 07:41:32;;;;;;;;;;;;;;;19.79;69.56;96109.09;5044915;28;19975;-77
2022/09/03 07:44:04;;;;;;;;;;;;;;;19.76;69.18;96115.00;5047456;28;19968;-78
2022/09/03 07:46:32;;;;;;;;;;;;;;;19.59;69.62;96118.09;5046638;28;19962;-77
2022/09/03 07:49:00;;;;;;;;;;;;;;;19.39;70.05;96124.41;5043421;28;19965;-77
2022/09/03 07:51:27;;;;;;;;;;;;;;;19.23;70.60;96130.94;5041897;28;19955;-77
2022/09/03 07:53:55;;;;;;;;;;;;;;;19.17;71.48;96127.56;5046421;28;19957;-77
2022/09/03 07:56:21;;;;;;;;;;;;;;;19.23;70.93;96122.97;5045131;28;19957;-77
2022/09/03 07:58:47;;;;;;;;;;;;;;;19.47;71.44;96134.41;5061788;28;20441;-77
2022/09/03 08:01:14;;;;;;;;;;;;;;;19.94;71.08;96132.06;5044793;28;19961;-77
2022/09/03 08:03:44;;;;;;;;;;;;;;;20.33;68.43;96111.59;5046840;28;19974;-77
2022/09/03 08:06:10;;;;;;;;;;;;;;;20.42;67.72;96109.84;5045170;28;20406;-77
2022/09/03 08:08:36;;;;;;;;;;;;;;;20.38;67.69;96114.97;5037502;28;20442;-78
2022/09/03 08:11:08;;;;;;;;;;;;;;;20.24;67.48;96120.22;5044271;28;19958;-77
2022/09/03 08:13:35;;;;;;;;;;;;;;;20.12;67.62;96125.19;5047145;28;19966;-78
2022/09/03 08:16:01;;;;;;;;;;;;;;;20.05;68.82;96128.19;5045308;28;19959;-78
2022/09/03 08:18:29;;;;;;;;;;;;;;;20.00;68.47;96127.47;5041587;28;19951;-78
2022/09/03 08:20:58;;;;;;;;;;;;;;;19.95;68.73;96124.84;5048922;28;19962;-77
2022/09/03 08:23:24;;;;;;;;;;;;;;;19.95;69.46;96131.00;5047181;28;19966;-77
2022/09/03 08:25:56;;;;;;;;;;;;;;;19.99;69.19;96124.03;5040266;28;20084;-77
2022/09/03 08:28:22;;;;;;;;;;;;;;;20.10;68.59;96118.56;5039842;28;19965;-78
2022/09/03 08:30:48;;;;;;;;;;;;;;;20.21;68.08;96122.66;5049418;28;20003;-77
2022/09/03 08:33:14;;;;;;;;;;;;;;;20.27;69.45;96140.94;5043851;28;20014;-77
2022/09/03 08:35:40;;;;;;;;;;;;;;;20.29;68.50;96148.66;5043647;28;20413;-78
2022/09/03 08:38:07;;;;;;;;;;;;;;;20.27;67.91;96138.28;5046772;28;20315;-77
2022/09/03 08:40:36;;;;;;;;;;;;;;;20.22;67.37;96133.03;5051091;28;19962;-77
2022/09/03 08:43:04;;;;;;;;;;;;;;;20.24;67.86;96133.53;5045830;28;19960;-77
2022/09/03 08:45:32;;;;;;;;;;;;;;;20.61;68.02;96139.94;5043901;28;20400;-78
2022/09/03 08:48:04;;;;;;;;;;;;;;;21.13;66.91;96125.81;5044720;28;19964;-77
2022/09/03 08:50:31;;;;;;;;;;;;;;;21.53;64.87;96118.19;5028368;28;19962;-77
2022/09/03 08:53:06;;;;;;;;;;;;;;;21.62;64.69;96130.53;5041195;28;19955;-77
2022/09/03 08:55:43;;;;;;;;;;;;;;;21.58;64.38;96132.22;5046739;28;20318;-78
2022/09/03 08:58:12;;;;;;;;;;;;;;;21.44;63.67;96118.06;5049252;28;19959;-77
2022/09/03 09:01:01;;;;;;;;;;;;;;;21.31;63.80;96129.50;5037767;28;19986;-78
2022/09/03 09:03:45;;;;;;;;;;;;;;;21.25;63.72;96126.13;5042908;28;19982;-77
2022/09/03 09:06:30;;;;;;;;;;;;;;;21.19;63.64;96130.00;5025634;28;19955;-78
2022/09/03 09:08:55;;;;;;;;;;;;;;;21.18;64.97;96141.72;5038831;28;19964;-78
2022/09/03 09:11:27;;;;;;;;;;;;;;;21.20;64.50;96143.00;5042856;28;19966;-77
2022/09/03 09:13:59;;;;;;;;;;;;;;;21.21;63.54;96133.16;5046825;28;19968;-78
2022/09/03 09:16:25;;;;;;;;;;;;;;;21.41;63.93;96132.75;5040763;28;19954;-78
2022/09/03 09:19:00;;;;;;;;;;;;;;;21.54;63.61;96123.22;5042267;28;19957;-78
2022/09/03 09:21:33;;;;;;;;;;;;;;;21.72;63.78;96128.78;5045484;28;19970;-78
2022/09/03 09:24:03;;;;;;;;;;;;;;;21.82;63.55;96116.00;5046629;28;19974;-77
2022/09/03 09:26:29;;;;;;;;;;;;;;;21.82;61.47;96092.00;5043620;28;19993;-78
2022/09/03 09:29:08;;;;;;;;;;;;;;;21.85;63.21;96109.28;5039349;28;19963;-78
2022/09/03 09:31:36;;;;;;;;;;;;;;;21.87;63.43;96107.88;5037674;28;19962;-78
2022/09/03 09:34:08;;;;;;;;;;;;;;;21.91;62.83;96112.66;5048853;28;20032;-78
2022/09/03 09:36:41;;;;;;;;;;;;;;;21.91;62.48;96118.00;5046710;28;19964;-78
2022/09/03 09:39:08;;;;;;;;;;;;;;;21.88;61.63;96111.34;5041568;28;19957;-78
2022/09/03 09:41:34;;;;;;;;;;;;;;;21.82;62.77;96123.25;5043388;28;19955;-78
2022/09/03 09:44:01;;;;;;;;;;;;;;;21.78;61.64;96117.69;5037752;28;19974;-78
2022/09/03 09:46:38;;;;;;;;;;;;;;;21.78;62.05;96130.25;5048315;28;19966;-78
2022/09/03 09:49:17;;;;;;;;;;;;;;;21.72;61.26;96128.78;5043466;28;19961;-78
2022/09/03 09:51:43;;;;;;;;;;;;;;;21.67;62.21;96132.31;5044884;28;19971;-78
2022/09/03 09:54:13;;;;;;;;;;;;;;;21.65;62.79;96127.28;5039828;28;19958;-78
2022/09/03 09:56:41;;;;;;;;;;;;;;;21.67;63.30;96127.78;5038552;28;19960;-78
2022/09/03 09:59:08;;;;;;;;;;;;;;;21.69;62.66;96124.81;5043005;28;19955;-78
2022/09/03 10:01:38;;;;;;;;;;;;;;;21.73;62.56;96125.78;5043999;28;19966;-78
2022/09/03 10:04:12;;;;;;;;;;;;;;;21.74;63.02;96122.03;5024866;28;19993;-78
2022/09/03 10:06:54;;;;;;;;;;;;;;;21.86;61.92;96105.53;5040434;28;19974;-78
2022/09/03 10:09:24;;;;;;;;;;;;;;;22.17;61.55;96100.31;5046372;28;20320;-78
2022/09/03 10:11:52;;;;;;;;;;;;;;;22.35;60.97;96097.84;5048545;28;19965;-78
2022/09/03 10:14:22;;;;;;;;;;;;;;;22.42;59.67;96079.50;5041273;28;19960;-78
2022/09/03 10:16:53;;;;;;;;;;;;;;;22.47;59.70;96087.41;5040986;28;19974;-78
2022/09/03 10:19:22;;;;;;;;;;;;;;;22.49;59.07;96091.38;5041454;28;19978;-78
2022/09/03 10:22:11;;;;;;;;;;;;;;;22.49;59.96;96101.25;5041590;28;19964;-78
2022/09/03 10:24:56;;;;;;;;;;;;;;;22.42;59.27;96090.19;5045168;28;19996;-78
2022/09/03 10:27:22;;;;;;;;;;;;;;;22.37;58.91;96099.13;5047306;28;19987;-78
2022/09/03 10:29:49;;;;;;;;;;;;;;;22.27;59.39;96102.00;5041993;28;20317;-78
2022/09/03 10:32:22;;;;;;;;;;;;;;;22.22;59.51;96094.09;5041478;28;19974;-78
2022/09/03 10:34:58;;;;;;;;;;;;;;;22.07;58.80;96084.53;5042633;28;19966;-78
2022/09/03 10:37:24;;;;;;;;;;;;;;;21.99;59.87;96106.59;5045566;28;19965;-78
2022/09/03 10:39:57;;;;;;;;;;;;;;;21.98;60.10;96105.78;5047940;28;20290;-78
2022/09/03 10:42:43;;;;;;;;;;;;;;;21.99;60.24;96106.59;5045888;28;19957;-78
2022/09/03 10:45:15;;;;;;;;;;;;;;;22.01;61.58;96109.78;5044180;28;19974;-78
2022/09/03 10:47:43;;;;;;;;;;;;;;;22.05;60.88;96111.53;5045343;28;20023;-78
2022/09/03 10:50:42;;;;;;;;;;;;;;;22.03;60.27;96097.69;5045528;28;19975;-78
2022/09/03 10:53:25;;;;;;;;;;;;;;;22.04;60.45;96101.94;5008057;28;19961;-78
2022/09/03 10:56:00;;;;;;;;;;;;;;;22.02;60.67;96100.66;5046220;28;19976;-78
2022/09/03 10:58:26;;;;;;;;;;;;;;;21.98;60.50;96094.34;5041461;28;19965;-78
2022/09/03 11:01:17;;;;;;;;;;;;;;;21.95;60.94;96098.41;5048680;28;20037;-78
2022/09/03 11:04:02;;;;;;;;;;;;;;;21.89;61.97;96124.41;5037759;28;19978;-78
2022/09/03 11:06:29;;;;;;;;;;;;;;;21.83;63.68;96140.81;5044868;28;19951;-78
2022/09/03 11:08:58;;;;;;;;;;;;;;;21.75;65.64;96160.19;5033248;28;19958;-79
2022/09/03 11:11:31;;;;;;;;;;;;;;;21.63;66.65;96164.16;5045751;28;19962;-76
2022/09/03 11:14:08;;;;;;;;;;;;;;;21.48;69.02;96180.41;5063271;28;19969;-75
2022/09/03 11:16:38;;;;;;;;;;;;;;;21.23;69.35;96173.63;5047517;28;19956;-75
2022/09/03 11:19:14;;;;;;;;;;;;;;;20.99;72.71;96195.09;5047295;28;19965;-75
2022/09/03 11:21:41;;;;;;;;;;;;;;;20.79;73.53;96182.84;5039738;28;19950;-75
2022/09/03 11:24:07;;;;;;;;;;;;;;;20.66;74.25;96184.38;5045318;28;19994;-74
2022/09/03 11:26:34;;;;;;;;;;;;;;;20.48;72.35;96167.31;5044803;28;20074;-74
2022/09/03 11:29:02;;;;;;;;;;;;;;;20.26;71.26;96160.69;5051487;28;19972;-76
2022/09/03 11:31:49;;;;;;;;;;;;;;;20.00;74.27;96170.84;5050162;28;20443;-77
2022/09/03 11:34:18;;;;;;;;;;;;;;;19.83;77.13;96181.16;5042315;28;19954;-74
2022/09/03 11:36:44;;;;;;;;;;;;;;;19.66;75.56;96206.31;5043204;28;19957;-75
2022/09/03 11:39:25;;;;;;;;;;;;;;;19.48;75.94;96255.66;5044061;28;20015;-74
2022/09/03 11:41:58;;;;;;;;;;;;;;;19.06;77.49;96241.13;5049056;28;19965;-75
2022/09/03 11:44:35;;;;;;;;;;;;;;;18.60;77.43;96230.75;5042412;28;20303;-74
2022/09/03 11:47:00;;;;;;;;;;;;;;;18.24;76.07;96216.88;5041281;28;19963;-74
2022/09/03 11:49:28;;;;;;;;;;;;;;;17.89;74.62;96234.50;5047556;28;20406;-74
2022/09/03 11:51:57;;;;;;;;;;;;;;;17.58;77.53;96269.00;5048409;28;19957;-76
2022/09/03 11:54:24;;;;;;;;;;;;;;;17.20;79.30;96278.28;5046125;28;19965;-76
2022/09/03 11:57:02;;;;;;;;;;;;;;;17.00;81.88;96287.78;5038883;28;19957;-74
2022/09/03 11:59:29;;;;;;;;;;;;;;;16.92;84.32;96298.91;5046174;28;19960;-75
2022/09/03 12:02:05;;;;;;;;;;;;;;;16.78;82.74;96284.56;5044943;28;19960;-74
2022/09/03 12:04:38;;;;;;;;;;;;;;;16.76;84.03;96289.31;5048489;28;19975;-74
2022/09/03 12:07:07;;;;;;;;;;;;;;;16.78;84.02;96269.44;5041263;28;19951;-74
2022/09/03 12:09:36;;;;;;;;;;;;;;;16.77;81.39;96251.16;5040409;28;19967;-74
2022/09/03 12:12:12;;;;;;;;;;;;;;;16.73;82.74;96247.44;5042391;28;20408;-74
2022/09/03 12:14:46;;;;;;;;;;;;;;;16.78;83.58;96253.56;5044941;28;19960;-74
2022/09/03 12:17:18;;;;;;;;;;;;;;;16.86;83.18;96254.13;5049530;28;19957;-75
2022/09/03 12:19:50;;;;;;;;;;;;;;;16.81;82.94;96255.72;5044896;28;19957;-76
2022/09/03 12:22:16;;;;;;;;;;;;;;;16.79;84.14;96257.78;5042741;28;19962;-75
2022/09/03 12:24:43;;;;;;;;;;;;;;;16.79;83.66;96251.72;5044526;28;19974;-76
2022/09/03 12:27:31;;;;;;;;;;;;;;;16.75;82.94;96245.34;5045919;28;19980;-76
2022/09/03 12:29:59;;;;;;;;;;;;;;;16.70;83.30;96248.78;5059636;28;19963;-76
2022/09/03 12:32:35;;;;;;;;;;;;;;;16.74;84.60;96243.75;5038100;28;19956;-77
2022/09/03 12:35:16;;;;;;;;;;;;;;;16.77;85.78;96241.38;5023941;28;19957;-78
2022/09/03 12:37:44;;;;;;;;;;;;;;;16.79;86.28;96247.19;5031720;28;19954;-78
2022/09/03 12:40:24;;;;;;;;;;;;;;;16.87;86.71;96259.16;5038828;28;20423;-78
2022/09/03 12:42:51;;;;;;;;;;;;;;;16.99;85.85;96248.34;5044128;28;20406;-78
2022/09/03 12:45:25;;;;;;;;;;;;;;;17.10;85.50;96249.94;5049108;28;20346;-78
2022/09/03 12:47:52;;;;;;;;;;;;;;;17.17;85.29;96253.09;5044398;28;20352;-78
2022/09/03 12:50:20;;;;;;;;;;;;;;;17.25;86.32;96257.88;5059948;28;20054;-78
2022/09/03 12:52:52;;;;;;;;;;;;;;;17.35;87.13;96259.75;5045120;28;19964;-78
2022/09/03 12:55:27;;;;;;;;;;;;;;;17.46;86.54;96263.19;5041912;28;20023;-78
2022/09/03 12:58:16;;;;;;;;;;;;;;;17.65;88.53;96255.47;5050692;28;20446;-78
2022/09/03 13:00:45;;;;;;;;;;;;;;;17.82;87.46;96250.69;5042441;28;19971;-79
2022/09/03 13:03:18;;;;;;;;;;;;;;;17.84;84.91;96253.09;5049438;28;19961;-79
2022/09/03 13:05:47;;;;;;;;;;;;;;;17.91;87.46;96260.75;5046008;28;19973;-79
2022/09/03 13:08:33;;;;;;;;;;;;;;;18.00;86.87;96259.94;5042460;28;19956;-79